sensor_id;sensor_type;location;lat;lon;timestamp;P1;durP1;ratioP1;P2;durP2;ratioP2
42834;SDS011;29335;50.526;30.458;2022-11-11T00:00:22;39.35;;;29.10;;
42834;SDS011;29335;50.526;30.458;2022-11-11T00:02:48;36.00;;;28.65;;
42834;SDS011;29335;50.526;30.458;2022-11-11T00:05:14;39.22;;;29.35;;
42834;SDS011;29335;50.526;30.458;2022-11-11T00:07:41;43.47;;;29.27;;
42834;SDS011;29335;50.526;30.458;2022-11-11T00:10:07;38.35;;;29.08;;
42834;SDS011;29335;50.526;30.458;2022-11-11T00:12:33;40.42;;;28.77;;
42834;SDS011;29335;50.526;30.458;2022-11-11T00:14:58;36.20;;;28.20;;
42834;SDS011;29335;50.526;30.458;2022-11-11T00:17:24;35.42;;;27.02;;
42834;SDS011;29335;50.526;30.458;2022-11-11T00:20:11;35.25;;;26.05;;
42834;SDS011;29335;50.526;30.458;2022-11-11T00:22:55;40.05;;;26.45;;
42834;SDS011;29335;50.526;30.458;2022-11-11T00:25:39;35.30;;;26.45;;
42834;SDS011;29335;50.526;30.458;2022-11-11T00:28:05;35.05;;;26.73;;
42834;SDS011;29335;50.526;30.458;2022-11-11T00:30:34;32.78;;;26.60;;
42834;SDS011;29335;50.526;30.458;2022-11-11T00:33:00;34.72;;;26.10;;
42834;SDS011;29335;50.526;30.458;2022-11-11T00:35:25;37.65;;;27.00;;
42834;SDS011;29335;50.526;30.458;2022-11-11T00:38:10;32.17;;;25.88;;
42834;SDS011;29335;50.526;30.458;2022-11-11T00:41:00;32.88;;;25.10;;
42834;SDS011;29335;50.526;30.458;2022-11-11T00:43:25;34.38;;;26.17;;
42834;SDS011;29335;50.526;30.458;2022-11-11T00:45:51;33.92;;;23.13;;
42834;SDS011;29335;50.526;30.458;2022-11-11T00:48:17;31.55;;;24.38;;
42834;SDS011;29335;50.526;30.458;2022-11-11T00:51:01;30.15;;;22.83;;
42834;SDS011;29335;50.526;30.458;2022-11-11T00:53:28;29.80;;;22.67;;
42834;SDS011;29335;50.526;30.458;2022-11-11T00:55:56;28.60;;;23.20;;
42834;SDS011;29335;50.526;30.458;2022-11-11T00:58:22;30.05;;;22.70;;
42834;SDS011;29335;50.526;30.458;2022-11-11T01:00:48;27.15;;;21.70;;
42834;SDS011;29335;50.526;30.458;2022-11-11T01:03:17;29.75;;;21.88;;
42834;SDS011;29335;50.526;30.458;2022-11-11T01:05:43;33.40;;;23.85;;
42834;SDS011;29335;50.526;30.458;2022-11-11T01:08:09;26.15;;;21.35;;
42834;SDS011;29335;50.526;30.458;2022-11-11T01:10:35;26.70;;;19.88;;
42834;SDS011;29335;50.526;30.458;2022-11-11T01:15:43;30.42;;;22.58;;
42834;SDS011;29335;50.526;30.458;2022-11-11T01:18:12;27.92;;;20.85;;
42834;SDS011;29335;50.526;30.458;2022-11-11T01:20:39;25.45;;;20.00;;
42834;SDS011;29335;50.526;30.458;2022-11-11T01:23:06;24.20;;;19.00;;
42834;SDS011;29335;50.526;30.458;2022-11-11T01:25:33;25.08;;;18.73;;
42834;SDS011;29335;50.526;30.458;2022-11-11T01:28:00;26.67;;;19.48;;
42834;SDS011;29335;50.526;30.458;2022-11-11T01:30:26;24.88;;;18.67;;
42834;SDS011;29335;50.526;30.458;2022-11-11T01:32:52;24.77;;;18.27;;
42834;SDS011;29335;50.526;30.458;2022-11-11T01:35:18;22.60;;;15.35;;
42834;SDS011;29335;50.526;30.458;2022-11-11T01:37:43;18.23;;;11.30;;
42834;SDS011;29335;50.526;30.458;2022-11-11T01:40:09;25.05;;;19.20;;
42834;SDS011;29335;50.526;30.458;2022-11-11T01:42:45;16.40;;;10.65;;
42834;SDS011;29335;50.526;30.458;2022-11-11T01:48:19;21.60;;;14.95;;
42834;SDS011;29335;50.526;30.458;2022-11-11T01:51:14;19.67;;;15.30;;
42834;SDS011;29335;50.526;30.458;2022-11-11T01:53:44;19.25;;;13.93;;
42834;SDS011;29335;50.526;30.458;2022-11-11T01:56:13;16.90;;;12.55;;
42834;SDS011;29335;50.526;30.458;2022-11-11T01:58:39;17.63;;;14.43;;
42834;SDS011;29335;50.526;30.458;2022-11-11T02:01:05;17.83;;;14.80;;
42834;SDS011;29335;50.526;30.458;2022-11-11T02:03:32;19.33;;;15.68;;
42834;SDS011;29335;50.526;30.458;2022-11-11T02:06:02;22.27;;;15.27;;
42834;SDS011;29335;50.526;30.458;2022-11-11T02:08:28;14.43;;;9.15;;
42834;SDS011;29335;50.526;30.458;2022-11-11T02:11:20;12.68;;;8.25;;
42834;SDS011;29335;50.526;30.458;2022-11-11T02:14:04;12.82;;;7.85;;
42834;SDS011;29335;50.526;30.458;2022-11-11T02:16:49;17.98;;;14.85;;
42834;SDS011;29335;50.526;30.458;2022-11-11T02:19:17;16.65;;;11.30;;
42834;SDS011;29335;50.526;30.458;2022-11-11T02:21:54;19.80;;;15.43;;
42834;SDS011;29335;50.526;30.458;2022-11-11T04:14:22;21.10;;;10.90;;
42834;SDS011;29335;50.526;30.458;2022-11-11T04:17:06;18.33;;;13.50;;
42834;SDS011;29335;50.526;30.458;2022-11-11T04:19:32;16.65;;;10.45;;
42834;SDS011;29335;50.526;30.458;2022-11-11T04:22:15;15.48;;;9.52;;
42834;SDS011;29335;50.526;30.458;2022-11-11T04:24:42;17.73;;;10.30;;
42834;SDS011;29335;50.526;30.458;2022-11-11T04:27:26;19.77;;;10.73;;
42834;SDS011;29335;50.526;30.458;2022-11-11T04:29:51;14.80;;;7.53;;
42834;SDS011;29335;50.526;30.458;2022-11-11T04:32:21;18.35;;;9.13;;
42834;SDS011;29335;50.526;30.458;2022-11-11T04:35:08;17.58;;;11.38;;
42834;SDS011;29335;50.526;30.458;2022-11-11T04:37:36;15.70;;;10.57;;
42834;SDS011;29335;50.526;30.458;2022-11-11T04:40:10;21.33;;;14.27;;
42834;SDS011;29335;50.526;30.458;2022-11-11T04:42:54;20.48;;;11.45;;
42834;SDS011;29335;50.526;30.458;2022-11-11T04:45:20;23.70;;;12.88;;
42834;SDS011;29335;50.526;30.458;2022-11-11T04:48:04;18.75;;;13.05;;
42834;SDS011;29335;50.526;30.458;2022-11-11T04:53:00;23.95;;;15.55;;
42834;SDS011;29335;50.526;30.458;2022-11-11T04:55:28;18.15;;;10.27;;
42834;SDS011;29335;50.526;30.458;2022-11-11T04:58:12;18.35;;;11.80;;
42834;SDS011;29335;50.526;30.458;2022-11-11T05:00:39;19.95;;;12.70;;
42834;SDS011;29335;50.526;30.458;2022-11-11T05:03:04;22.15;;;15.55;;
42834;SDS011;29335;50.526;30.458;2022-11-11T05:05:46;15.07;;;8.25;;
42834;SDS011;29335;50.526;30.458;2022-11-11T05:08:33;24.05;;;14.93;;
42834;SDS011;29335;50.526;30.458;2022-11-11T05:11:19;27.67;;;17.63;;
42834;SDS011;29335;50.526;30.458;2022-11-11T05:13:45;18.13;;;11.52;;
42834;SDS011;29335;50.526;30.458;2022-11-11T05:16:53;29.77;;;20.60;;
42834;SDS011;29335;50.526;30.458;2022-11-11T05:19:39;25.58;;;16.92;;
42834;SDS011;29335;50.526;30.458;2022-11-11T05:24:52;33.05;;;22.05;;
42834;SDS011;29335;50.526;30.458;2022-11-11T05:27:36;31.05;;;23.55;;
42834;SDS011;29335;50.526;30.458;2022-11-11T05:30:03;31.60;;;21.17;;
42834;SDS011;29335;50.526;30.458;2022-11-11T05:32:29;27.05;;;18.63;;
42834;SDS011;29335;50.526;30.458;2022-11-11T05:34:55;36.45;;;24.75;;
42834;SDS011;29335;50.526;30.458;2022-11-11T05:37:21;30.85;;;20.48;;
42834;SDS011;29335;50.526;30.458;2022-11-11T05:39:46;33.28;;;24.83;;
42834;SDS011;29335;50.526;30.458;2022-11-11T05:42:12;40.47;;;28.55;;
42834;SDS011;29335;50.526;30.458;2022-11-11T05:44:38;38.05;;;27.38;;
42834;SDS011;29335;50.526;30.458;2022-11-11T05:47:03;18.55;;;11.77;;
42834;SDS011;29335;50.526;30.458;2022-11-11T05:49:29;24.83;;;15.35;;
42834;SDS011;29335;50.526;30.458;2022-11-11T05:51:55;14.75;;;9.57;;
42834;SDS011;29335;50.526;30.458;2022-11-11T05:54:21;19.65;;;12.20;;
42834;SDS011;29335;50.526;30.458;2022-11-11T05:56:46;26.45;;;19.60;;
42834;SDS011;29335;50.526;30.458;2022-11-11T05:59:12;20.30;;;11.18;;
42834;SDS011;29335;50.526;30.458;2022-11-11T06:01:38;19.60;;;13.03;;
42834;SDS011;29335;50.526;30.458;2022-11-11T06:04:05;17.20;;;9.68;;
42834;SDS011;29335;50.526;30.458;2022-11-11T06:06:31;32.30;;;23.45;;
42834;SDS011;29335;50.526;30.458;2022-11-11T06:08:58;36.13;;;22.48;;
42834;SDS011;29335;50.526;30.458;2022-11-11T06:11:23;18.98;;;9.93;;
42834;SDS011;29335;50.526;30.458;2022-11-11T06:13:50;16.38;;;8.88;;
42834;SDS011;29335;50.526;30.458;2022-11-11T06:16:15;24.83;;;17.42;;
42834;SDS011;29335;50.526;30.458;2022-11-11T06:18:41;22.30;;;13.82;;
42834;SDS011;29335;50.526;30.458;2022-11-11T06:21:07;17.27;;;10.15;;
42834;SDS011;29335;50.526;30.458;2022-11-11T06:23:33;22.38;;;10.00;;
42834;SDS011;29335;50.526;30.458;2022-11-11T06:25:58;30.38;;;20.00;;
42834;SDS011;29335;50.526;30.458;2022-11-11T06:28:52;22.92;;;13.93;;
42834;SDS011;29335;50.526;30.458;2022-11-11T06:31:20;20.10;;;11.93;;
42834;SDS011;29335;50.526;30.458;2022-11-11T06:33:47;21.40;;;10.68;;
42834;SDS011;29335;50.526;30.458;2022-11-11T06:36:13;18.40;;;10.88;;
42834;SDS011;29335;50.526;30.458;2022-11-11T06:38:41;20.10;;;10.48;;
42834;SDS011;29335;50.526;30.458;2022-11-11T06:41:07;22.25;;;13.35;;
42834;SDS011;29335;50.526;30.458;2022-11-11T06:43:34;22.23;;;12.98;;
42834;SDS011;29335;50.526;30.458;2022-11-11T06:46:00;24.85;;;14.93;;
42834;SDS011;29335;50.526;30.458;2022-11-11T06:48:26;22.10;;;13.02;;
42834;SDS011;29335;50.526;30.458;2022-11-11T06:50:53;31.15;;;14.32;;
42834;SDS011;29335;50.526;30.458;2022-11-11T06:53:19;27.83;;;14.27;;
42834;SDS011;29335;50.526;30.458;2022-11-11T06:55:46;22.77;;;13.02;;
42834;SDS011;29335;50.526;30.458;2022-11-11T06:58:16;24.08;;;13.95;;
42834;SDS011;29335;50.526;30.458;2022-11-11T07:00:44;32.05;;;17.02;;
42834;SDS011;29335;50.526;30.458;2022-11-11T07:03:11;22.50;;;10.68;;
42834;SDS011;29335;50.526;30.458;2022-11-11T07:05:38;23.65;;;12.23;;
42834;SDS011;29335;50.526;30.458;2022-11-11T07:08:08;26.17;;;10.95;;
42834;SDS011;29335;50.526;30.458;2022-11-11T07:10:37;17.73;;;8.88;;
42834;SDS011;29335;50.526;30.458;2022-11-11T07:13:07;25.80;;;14.52;;
42834;SDS011;29335;50.526;30.458;2022-11-11T07:15:33;22.85;;;9.82;;
42834;SDS011;29335;50.526;30.458;2022-11-11T07:17:59;23.98;;;11.43;;
42834;SDS011;29335;50.526;30.458;2022-11-11T07:20:25;26.23;;;13.07;;
42834;SDS011;29335;50.526;30.458;2022-11-11T07:22:50;19.77;;;11.05;;
42834;SDS011;29335;50.526;30.458;2022-11-11T07:25:16;23.85;;;12.13;;
42834;SDS011;29335;50.526;30.458;2022-11-11T07:27:42;33.17;;;19.60;;
42834;SDS011;29335;50.526;30.458;2022-11-11T07:30:08;20.88;;;13.18;;
42834;SDS011;29335;50.526;30.458;2022-11-11T07:32:35;23.88;;;13.75;;
42834;SDS011;29335;50.526;30.458;2022-11-11T07:35:01;25.83;;;13.20;;
42834;SDS011;29335;50.526;30.458;2022-11-11T07:37:28;25.00;;;15.77;;
42834;SDS011;29335;50.526;30.458;2022-11-11T07:39:54;32.05;;;19.33;;
42834;SDS011;29335;50.526;30.458;2022-11-11T07:42:20;19.52;;;9.02;;
42834;SDS011;29335;50.526;30.458;2022-11-11T07:44:46;28.90;;;17.40;;
42834;SDS011;29335;50.526;30.458;2022-11-11T07:47:11;33.78;;;16.67;;
42834;SDS011;29335;50.526;30.458;2022-11-11T07:49:37;26.92;;;14.85;;
42834;SDS011;29335;50.526;30.458;2022-11-11T07:52:02;24.90;;;12.60;;
42834;SDS011;29335;50.526;30.458;2022-11-11T07:54:28;27.30;;;12.77;;
42834;SDS011;29335;50.526;30.458;2022-11-11T07:56:54;23.88;;;11.50;;
42834;SDS011;29335;50.526;30.458;2022-11-11T07:59:19;36.85;;;21.08;;
42834;SDS011;29335;50.526;30.458;2022-11-11T08:01:45;27.88;;;11.75;;
42834;SDS011;29335;50.526;30.458;2022-11-11T08:04:10;23.40;;;10.60;;
42834;SDS011;29335;50.526;30.458;2022-11-11T08:06:36;31.38;;;16.63;;
42834;SDS011;29335;50.526;30.458;2022-11-11T08:09:02;19.50;;;10.00;;
42834;SDS011;29335;50.526;30.458;2022-11-11T08:11:28;27.70;;;16.58;;
42834;SDS011;29335;50.526;30.458;2022-11-11T08:14:12;30.00;;;12.70;;
42834;SDS011;29335;50.526;30.458;2022-11-11T08:16:38;26.42;;;13.10;;
42834;SDS011;29335;50.526;30.458;2022-11-11T08:19:03;17.08;;;9.52;;
42834;SDS011;29335;50.526;30.458;2022-11-11T08:21:29;28.63;;;16.05;;
42834;SDS011;29335;50.526;30.458;2022-11-11T08:23:54;31.23;;;21.00;;
42834;SDS011;29335;50.526;30.458;2022-11-11T08:26:20;31.05;;;17.88;;
42834;SDS011;29335;50.526;30.458;2022-11-11T08:28:47;28.27;;;15.25;;
42834;SDS011;29335;50.526;30.458;2022-11-11T08:31:13;38.40;;;23.55;;
42834;SDS011;29335;50.526;30.458;2022-11-11T08:33:39;36.45;;;19.45;;
42834;SDS011;29335;50.526;30.458;2022-11-11T08:36:05;34.88;;;21.52;;
42834;SDS011;29335;50.526;30.458;2022-11-11T08:38:32;39.03;;;23.92;;
42834;SDS011;29335;50.526;30.458;2022-11-11T08:40:59;30.02;;;18.55;;
42834;SDS011;29335;50.526;30.458;2022-11-11T08:43:25;38.65;;;22.08;;
42834;SDS011;29335;50.526;30.458;2022-11-11T08:45:51;33.45;;;20.88;;
42834;SDS011;29335;50.526;30.458;2022-11-11T08:48:17;22.35;;;13.63;;
42834;SDS011;29335;50.526;30.458;2022-11-11T08:50:43;34.38;;;21.58;;
42834;SDS011;29335;50.526;30.458;2022-11-11T08:53:09;34.17;;;21.05;;
42834;SDS011;29335;50.526;30.458;2022-11-11T08:55:36;33.78;;;21.60;;
42834;SDS011;29335;50.526;30.458;2022-11-11T08:58:03;33.72;;;24.35;;
42834;SDS011;29335;50.526;30.458;2022-11-11T09:00:31;32.67;;;22.17;;
42834;SDS011;29335;50.526;30.458;2022-11-11T09:03:04;29.83;;;18.35;;
42834;SDS011;29335;50.526;30.458;2022-11-11T09:05:31;24.80;;;17.25;;
42834;SDS011;29335;50.526;30.458;2022-11-11T09:08:01;28.27;;;18.70;;
42834;SDS011;29335;50.526;30.458;2022-11-11T09:10:31;24.52;;;14.57;;
42834;SDS011;29335;50.526;30.458;2022-11-11T09:12:58;34.40;;;21.30;;
42834;SDS011;29335;50.526;30.458;2022-11-11T09:15:24;29.17;;;20.65;;
42834;SDS011;29335;50.526;30.458;2022-11-11T09:17:50;29.02;;;16.48;;
42834;SDS011;29335;50.526;30.458;2022-11-11T09:20:16;24.02;;;15.05;;
42834;SDS011;29335;50.526;30.458;2022-11-11T09:22:43;37.97;;;23.08;;
42834;SDS011;29335;50.526;30.458;2022-11-11T09:25:10;35.13;;;23.48;;
42834;SDS011;29335;50.526;30.458;2022-11-11T09:27:35;35.70;;;22.73;;
42834;SDS011;29335;50.526;30.458;2022-11-11T09:30:01;30.67;;;21.27;;
42834;SDS011;29335;50.526;30.458;2022-11-11T09:32:26;31.02;;;22.67;;
42834;SDS011;29335;50.526;30.458;2022-11-11T09:34:52;26.42;;;18.85;;
42834;SDS011;29335;50.526;30.458;2022-11-11T09:37:19;31.75;;;16.27;;
42834;SDS011;29335;50.526;30.458;2022-11-11T09:39:45;27.73;;;18.08;;
42834;SDS011;29335;50.526;30.458;2022-11-11T09:42:14;27.23;;;14.98;;
42834;SDS011;29335;50.526;30.458;2022-11-11T09:45:08;14.98;;;8.77;;
42834;SDS011;29335;50.526;30.458;2022-11-11T09:50:27;26.58;;;19.50;;
42834;SDS011;29335;50.526;30.458;2022-11-11T09:55:40;25.52;;;17.70;;
42834;SDS011;29335;50.526;30.458;2022-11-11T09:58:31;29.30;;;19.27;;
42834;SDS011;29335;50.526;30.458;2022-11-11T10:01:05;26.77;;;19.08;;
42834;SDS011;29335;50.526;30.458;2022-11-11T10:03:32;34.28;;;22.70;;
42834;SDS011;29335;50.526;30.458;2022-11-11T10:08:46;24.73;;;16.08;;
42834;SDS011;29335;50.526;30.458;2022-11-11T10:13:53;17.80;;;10.73;;
42834;SDS011;29335;50.526;30.458;2022-11-11T14:41:57;11.48;;;8.35;;
42834;SDS011;29335;50.526;30.458;2022-11-11T14:57:33;10.23;;;8.77;;
42834;SDS011;29335;50.526;30.458;2022-11-11T15:00:11;15.55;;;9.20;;
42834;SDS011;29335;50.526;30.458;2022-11-11T15:02:44;13.27;;;9.88;;
42834;SDS011;29335;50.526;30.458;2022-11-11T15:05:43;11.60;;;9.80;;
42834;SDS011;29335;50.526;30.458;2022-11-11T15:14:27;10.52;;;8.55;;
42834;SDS011;29335;50.526;30.458;2022-11-11T15:30:57;14.63;;;9.98;;
42834;SDS011;29335;50.526;30.458;2022-11-11T15:39:19;13.75;;;10.88;;
42834;SDS011;29335;50.526;30.458;2022-11-11T15:41:49;15.20;;;12.02;;
42834;SDS011;29335;50.526;30.458;2022-11-11T15:44:23;14.02;;;12.45;;
42834;SDS011;29335;50.526;30.458;2022-11-11T15:46:50;15.45;;;12.80;;
42834;SDS011;29335;50.526;30.458;2022-11-11T15:49:36;17.33;;;13.50;;
42834;SDS011;29335;50.526;30.458;2022-11-11T15:52:04;18.60;;;13.80;;
42834;SDS011;29335;50.526;30.458;2022-11-11T15:54:37;17.15;;;12.80;;
42834;SDS011;29335;50.526;30.458;2022-11-11T15:59:49;17.92;;;12.60;;
42834;SDS011;29335;50.526;30.458;2022-11-11T16:02:19;15.80;;;12.50;;
42834;SDS011;29335;50.526;30.458;2022-11-11T16:07:36;18.77;;;13.90;;
42834;SDS011;29335;50.526;30.458;2022-11-11T16:10:09;15.85;;;12.68;;
42834;SDS011;29335;50.526;30.458;2022-11-11T16:13:21;19.10;;;14.23;;
42834;SDS011;29335;50.526;30.458;2022-11-11T16:21:24;18.05;;;13.57;;
42834;SDS011;29335;50.526;30.458;2022-11-11T16:23:50;16.10;;;9.80;;
42834;SDS011;29335;50.526;30.458;2022-11-11T16:26:17;14.30;;;11.30;;
42834;SDS011;29335;50.526;30.458;2022-11-11T16:28:46;19.17;;;10.95;;
42834;SDS011;29335;50.526;30.458;2022-11-11T16:37:00;17.88;;;11.65;;
42834;SDS011;29335;50.526;30.458;2022-11-11T16:39:26;14.32;;;11.05;;
42834;SDS011;29335;50.526;30.458;2022-11-11T16:41:53;15.98;;;11.95;;
42834;SDS011;29335;50.526;30.458;2022-11-11T16:44:28;14.75;;;8.98;;
42834;SDS011;29335;50.526;30.458;2022-11-11T16:46:54;11.05;;;8.50;;
42834;SDS011;29335;50.526;30.458;2022-11-11T16:49:32;13.30;;;8.15;;
42834;SDS011;29335;50.526;30.458;2022-11-11T16:52:20;11.68;;;8.60;;
42834;SDS011;29335;50.526;30.458;2022-11-11T16:54:49;15.13;;;10.48;;
42834;SDS011;29335;50.526;30.458;2022-11-11T16:57:21;19.85;;;12.77;;
42834;SDS011;29335;50.526;30.458;2022-11-11T16:59:51;19.17;;;13.70;;
42834;SDS011;29335;50.526;30.458;2022-11-11T17:02:22;17.02;;;12.40;;
42834;SDS011;29335;50.526;30.458;2022-11-11T17:04:53;20.33;;;13.10;;
42834;SDS011;29335;50.526;30.458;2022-11-11T17:12:32;19.65;;;15.57;;
42834;SDS011;29335;50.526;30.458;2022-11-11T17:14:59;19.83;;;14.27;;
42834;SDS011;29335;50.526;30.458;2022-11-11T17:17:24;20.85;;;13.85;;
42834;SDS011;29335;50.526;30.458;2022-11-11T17:19:50;18.95;;;13.80;;
42834;SDS011;29335;50.526;30.458;2022-11-11T17:22:16;19.63;;;14.25;;
42834;SDS011;29335;50.526;30.458;2022-11-11T17:24:42;19.33;;;13.63;;
42834;SDS011;29335;50.526;30.458;2022-11-11T17:27:07;23.45;;;13.88;;
42834;SDS011;29335;50.526;30.458;2022-11-11T17:29:34;21.70;;;14.75;;
42834;SDS011;29335;50.526;30.458;2022-11-11T17:32:00;20.52;;;15.23;;
42834;SDS011;29335;50.526;30.458;2022-11-11T17:34:26;19.98;;;15.27;;
42834;SDS011;29335;50.526;30.458;2022-11-11T17:36:52;22.63;;;16.48;;
42834;SDS011;29335;50.526;30.458;2022-11-11T17:39:20;23.48;;;16.17;;
42834;SDS011;29335;50.526;30.458;2022-11-11T17:41:46;19.45;;;16.90;;
42834;SDS011;29335;50.526;30.458;2022-11-11T17:44:11;21.35;;;15.43;;
42834;SDS011;29335;50.526;30.458;2022-11-11T17:46:37;22.00;;;16.35;;
42834;SDS011;29335;50.526;30.458;2022-11-11T17:49:03;23.33;;;17.70;;
42834;SDS011;29335;50.526;30.458;2022-11-11T17:51:29;25.05;;;17.58;;
42834;SDS011;29335;50.526;30.458;2022-11-11T17:53:54;25.20;;;17.08;;
42834;SDS011;29335;50.526;30.458;2022-11-11T17:56:21;25.70;;;18.23;;
42834;SDS011;29335;50.526;30.458;2022-11-11T17:58:49;24.48;;;17.77;;
42834;SDS011;29335;50.526;30.458;2022-11-11T18:01:15;23.05;;;16.15;;
42834;SDS011;29335;50.526;30.458;2022-11-11T18:03:43;24.00;;;17.98;;
42834;SDS011;29335;50.526;30.458;2022-11-11T18:06:09;31.25;;;23.65;;
42834;SDS011;29335;50.526;30.458;2022-11-11T18:08:35;24.80;;;18.30;;
42834;SDS011;29335;50.526;30.458;2022-11-11T18:11:05;21.98;;;17.90;;
42834;SDS011;29335;50.526;30.458;2022-11-11T18:13:33;26.45;;;17.60;;
42834;SDS011;29335;50.526;30.458;2022-11-11T18:15:58;26.55;;;19.58;;
42834;SDS011;29335;50.526;30.458;2022-11-11T18:18:25;26.90;;;19.20;;
42834;SDS011;29335;50.526;30.458;2022-11-11T18:20:52;22.20;;;18.80;;
42834;SDS011;29335;50.526;30.458;2022-11-11T18:23:18;28.73;;;19.85;;
42834;SDS011;29335;50.526;30.458;2022-11-11T18:25:44;24.98;;;19.98;;
42834;SDS011;29335;50.526;30.458;2022-11-11T18:28:09;29.05;;;20.95;;
42834;SDS011;29335;50.526;30.458;2022-11-11T18:30:35;27.70;;;19.50;;
42834;SDS011;29335;50.526;30.458;2022-11-11T18:33:01;25.83;;;20.05;;
42834;SDS011;29335;50.526;30.458;2022-11-11T18:35:27;25.48;;;18.38;;
42834;SDS011;29335;50.526;30.458;2022-11-11T18:37:52;26.55;;;18.63;;
42834;SDS011;29335;50.526;30.458;2022-11-11T18:40:18;28.80;;;19.15;;
42834;SDS011;29335;50.526;30.458;2022-11-11T18:42:44;29.05;;;20.67;;
42834;SDS011;29335;50.526;30.458;2022-11-11T18:45:10;30.33;;;20.15;;
42834;SDS011;29335;50.526;30.458;2022-11-11T18:47:38;25.92;;;19.95;;
42834;SDS011;29335;50.526;30.458;2022-11-11T18:50:04;26.88;;;20.73;;
42834;SDS011;29335;50.526;30.458;2022-11-11T18:52:33;24.83;;;19.33;;
42834;SDS011;29335;50.526;30.458;2022-11-11T18:54:58;26.42;;;19.58;;
42834;SDS011;29335;50.526;30.458;2022-11-11T18:57:24;26.48;;;18.25;;
42834;SDS011;29335;50.526;30.458;2022-11-11T18:59:50;28.30;;;18.95;;
42834;SDS011;29335;50.526;30.458;2022-11-11T19:02:15;29.08;;;21.00;;
42834;SDS011;29335;50.526;30.458;2022-11-11T19:04:41;29.92;;;23.58;;
